createdAt,value
2017-05-06T00:00:53.462Z,7.2
2017-05-06T00:02:12.138Z,7.2
2017-05-06T00:03:30.838Z,7.2
2017-05-06T00:04:49.490Z,7.2
2017-05-06T00:06:08.140Z,7.2
2017-05-06T00:07:26.827Z,7.3
2017-05-06T00:08:45.503Z,7.4
2017-05-06T00:10:04.175Z,7.5
2017-05-06T00:11:22.810Z,7.6
2017-05-06T00:12:41.452Z,7.6
2017-05-06T00:14:00.175Z,7.6
2017-05-06T00:15:18.881Z,7.6
2017-05-06T00:16:37.529Z,7.7
2017-05-06T00:17:56.163Z,7.7
2017-05-06T00:19:14.810Z,7.7
2017-05-06T00:20:33.474Z,7.8
2017-05-06T00:21:52.124Z,7.8
2017-05-06T00:23:10.767Z,7.8
2017-05-06T00:24:29.413Z,7.8
2017-05-06T00:25:48.120Z,7.8
2017-05-06T00:27:06.794Z,7.8
2017-05-06T00:28:25.442Z,7.8
2017-05-06T00:29:44.091Z,7.8
2017-05-06T00:31:02.751Z,7.8
2017-05-06T00:32:21.479Z,7.8
2017-05-06T00:33:40.126Z,7.8
2017-05-06T00:34:58.765Z,7.8
2017-05-06T00:36:17.438Z,7.9
2017-05-06T00:37:36.104Z,7.9
2017-05-06T00:38:54.781Z,7.8
2017-05-06T00:40:13.428Z,7.8
2017-05-06T00:41:32.087Z,7.8
2017-05-06T00:42:50.725Z,7.8
2017-05-06T00:44:09.401Z,7.8
2017-05-06T00:45:28.050Z,7.8
2017-05-06T00:46:46.760Z,7.8
2017-05-06T00:48:05.419Z,7.7
2017-05-06T00:49:24.078Z,7.7
2017-05-06T00:50:42.718Z,7.8
2017-05-06T00:52:01.383Z,7.8
2017-05-06T00:53:20.019Z,7.8
2017-05-06T00:54:38.664Z,7.8
2017-05-06T00:55:57.300Z,7.8
2017-05-06T00:57:15.962Z,7.8
2017-05-06T00:58:34.598Z,7.8
2017-05-06T00:59:53.266Z,7.8
2017-05-06T01:01:11.901Z,7.8
2017-05-06T01:02:30.575Z,7.8
2017-05-06T01:03:49.227Z,7.8
2017-05-06T01:05:07.900Z,7.9
2017-05-06T01:06:26.609Z,7.8
2017-05-06T01:07:45.335Z,7.9
2017-05-06T01:09:04.016Z,7.8
2017-05-06T01:10:22.707Z,7.8
2017-05-06T01:11:41.385Z,7.8
2017-05-06T01:13:00.075Z,7.8
2017-05-06T01:14:18.719Z,7.8
2017-05-06T01:15:37.371Z,7.8
2017-05-06T01:16:56.022Z,7.8
2017-05-06T01:18:14.681Z,7.8
2017-05-06T01:19:33.388Z,7.8
2017-05-06T01:20:52.040Z,7.8
2017-05-06T01:22:10.677Z,7.8
2017-05-06T01:23:29.343Z,7.8
2017-05-06T01:24:47.984Z,7.8
2017-05-06T01:26:06.687Z,7.8
2017-05-06T01:27:25.349Z,7.8
2017-05-06T01:28:43.990Z,7.8
2017-05-06T01:30:02.676Z,7.8
2017-05-06T01:31:21.348Z,7.8
2017-05-06T01:32:39.993Z,7.7
2017-05-06T01:33:58.667Z,7.7
2017-05-06T01:35:17.378Z,7.6
2017-05-06T01:36:36.022Z,7.6
2017-05-06T01:37:54.715Z,7.6
2017-05-06T01:39:13.364Z,7.6
2017-05-06T01:40:32.032Z,7.5
2017-05-06T01:41:50.711Z,7.5
2017-05-06T01:43:09.367Z,7.6
2017-05-06T01:44:28.037Z,7.6
2017-05-06T01:45:46.728Z,7.6
2017-05-06T01:47:05.393Z,7.7
2017-05-06T01:48:24.033Z,7.7
2017-05-06T01:49:42.695Z,7.7
2017-05-06T01:51:01.370Z,7.7
2017-05-06T01:52:20.067Z,7.8
2017-05-06T01:53:38.742Z,7.8
2017-05-06T01:54:57.444Z,7.8
2017-05-06T01:56:16.098Z,7.9
2017-05-06T01:57:34.753Z,7.9
2017-05-06T01:58:53.390Z,7.8
2017-05-06T02:00:12.054Z,7.8
2017-05-06T02:01:30.697Z,7.8
2017-05-06T02:02:49.340Z,7.7
2017-05-06T02:04:07.995Z,7.8
2017-05-06T02:05:26.640Z,7.8
2017-05-06T02:06:45.362Z,7.8
2017-05-06T02:08:04.007Z,7.8
2017-05-06T02:09:22.654Z,7.9
2017-05-06T02:10:41.380Z,7.8
2017-05-06T02:12:00.017Z,7.9
2017-05-06T02:13:18.661Z,7.8
2017-05-06T02:14:37.296Z,7.8
2017-05-06T02:15:55.948Z,7.8
2017-05-06T02:17:14.664Z,7.8
2017-05-06T02:18:33.307Z,7.8
2017-05-06T02:19:51.950Z,7.8
2017-05-06T02:21:10.622Z,7.8
2017-05-06T02:22:29.311Z,7.8
2017-05-06T02:23:47.990Z,7.8
2017-05-06T02:25:06.626Z,7.8
2017-05-06T02:26:25.270Z,7.7
2017-05-06T02:27:43.915Z,7.7
2017-05-06T02:29:02.567Z,7.7
2017-05-06T02:30:21.268Z,7.7
2017-05-06T02:31:39.946Z,7.7
2017-05-06T02:32:58.592Z,7.7
2017-05-06T02:34:17.232Z,7.8
2017-05-06T02:35:35.907Z,7.8
2017-05-06T02:36:54.587Z,7.8
2017-05-06T02:38:13.234Z,7.8
2017-05-06T02:39:31.932Z,7.8
2017-05-06T02:40:50.592Z,7.8
2017-05-06T02:42:09.263Z,7.8
2017-05-06T02:43:27.898Z,7.9
2017-05-06T02:44:46.549Z,7.9
2017-05-06T02:46:05.187Z,7.8
2017-05-06T02:47:23.852Z,7.8
2017-05-06T02:48:42.493Z,7.8
2017-05-06T02:50:01.157Z,7.8
2017-05-06T02:51:19.810Z,7.9
2017-05-06T02:52:38.511Z,7.9
2017-05-06T02:53:57.183Z,7.9
2017-05-06T02:55:15.833Z,7.9
2017-05-06T02:56:34.509Z,7.9
2017-05-06T02:57:53.177Z,7.9
2017-05-06T02:59:11.868Z,7.9
2017-05-06T03:00:30.565Z,7.9
2017-05-06T03:01:49.241Z,7.9
2017-05-06T03:03:07.942Z,7.9
2017-05-06T03:04:26.641Z,7.9
2017-05-06T03:05:45.313Z,7.9
2017-05-06T03:07:03.955Z,7.9
2017-05-06T03:08:22.623Z,7.9
2017-05-06T03:09:41.339Z,7.9
2017-05-06T03:10:59.986Z,7.9
2017-05-06T03:12:18.623Z,7.9
2017-05-06T03:13:37.306Z,7.9
2017-05-06T03:14:55.975Z,7.9
2017-05-06T03:16:14.614Z,7.9
2017-05-06T03:17:33.253Z,7.9
2017-05-06T03:18:51.977Z,7.9
2017-05-06T03:20:10.618Z,7.9
2017-05-06T03:21:29.338Z,7.9
2017-05-06T03:22:47.982Z,7.9
2017-05-06T03:24:06.644Z,7.9
2017-05-06T03:25:25.346Z,7.9
2017-05-06T03:26:43.984Z,7.8
2017-05-06T03:28:02.630Z,7.9
2017-05-06T03:29:21.302Z,7.8
2017-05-06T03:30:39.940Z,7.9
2017-05-06T03:31:58.580Z,7.9
2017-05-06T03:33:17.274Z,7.9
2017-05-06T03:34:35.970Z,7.9
2017-05-06T03:35:54.642Z,7.9
2017-05-06T03:37:13.277Z,7.9
2017-05-06T03:38:31.919Z,7.9
2017-05-06T03:39:50.636Z,7.9
2017-05-06T03:41:09.371Z,7.9
2017-05-06T03:42:28.007Z,7.9
2017-05-06T03:43:46.658Z,7.9
2017-05-06T03:45:05.352Z,7.9
2017-05-06T03:46:23.995Z,7.9
2017-05-06T03:47:42.636Z,7.9
2017-05-06T03:49:01.283Z,7.9
2017-05-06T03:50:19.932Z,7.9
2017-05-06T03:51:38.586Z,7.9
2017-05-06T03:52:57.233Z,7.9
2017-05-06T03:54:15.904Z,7.9
2017-05-06T03:55:34.586Z,7.9
2017-05-06T03:56:53.303Z,8
2017-05-06T03:58:11.976Z,8
2017-05-06T03:59:30.637Z,7.9
2017-05-06T04:00:49.284Z,7.9
2017-05-06T04:02:07.927Z,7.9
2017-05-06T04:03:26.616Z,8
2017-05-06T04:04:45.299Z,8
2017-05-06T04:06:03.968Z,8
2017-05-06T04:07:22.607Z,8
2017-05-06T04:08:41.254Z,8
2017-05-06T04:09:59.893Z,8
2017-05-06T04:11:18.596Z,8
2017-05-06T04:12:37.276Z,8
2017-05-06T04:13:55.924Z,7.9
2017-05-06T04:15:14.569Z,7.9
2017-05-06T04:16:33.238Z,8
2017-05-06T04:17:51.918Z,7.9
2017-05-06T04:19:10.587Z,7.9
2017-05-06T04:20:29.224Z,7.9
2017-05-06T04:21:47.936Z,7.9
2017-05-06T04:23:06.571Z,8
2017-05-06T04:24:25.211Z,8
2017-05-06T04:25:43.856Z,8
2017-05-06T04:27:02.554Z,8
2017-05-06T04:28:21.221Z,8
2017-05-06T04:29:39.870Z,8
2017-05-06T04:30:58.514Z,8
2017-05-06T04:32:17.188Z,8
2017-05-06T04:33:35.828Z,8
2017-05-06T04:34:54.469Z,8
2017-05-06T04:36:13.113Z,8.1
2017-05-06T04:37:31.789Z,8.1
2017-05-06T04:38:50.498Z,8.1
2017-05-06T04:40:09.156Z,8.1
2017-05-06T04:41:27.873Z,8.1
2017-05-06T04:42:46.603Z,8.1
2017-05-06T04:44:05.328Z,8.1
2017-05-06T04:45:24.009Z,8.1
2017-05-06T04:46:42.694Z,8.1
2017-05-06T04:48:01.402Z,8.1
2017-05-06T04:49:20.062Z,8.1
2017-05-06T04:50:38.737Z,8.1
2017-05-06T04:51:57.384Z,8.1
2017-05-06T04:53:16.084Z,8.1
2017-05-06T04:54:34.723Z,8.2
2017-05-06T04:55:53.381Z,8.2
2017-05-06T04:57:12.018Z,8.2
2017-05-06T04:58:30.692Z,8.2
2017-05-06T04:59:49.352Z,8.3
2017-05-06T05:01:07.989Z,8.3
2017-05-06T05:02:26.625Z,8.3
2017-05-06T05:03:45.304Z,8.3
2017-05-06T05:05:03.950Z,8.3
2017-05-06T05:06:22.612Z,8.3
2017-05-06T05:07:41.258Z,8.4
2017-05-06T05:08:59.928Z,8.4
2017-05-06T05:10:18.564Z,8.4
2017-05-06T05:11:37.226Z,8.5
2017-05-06T05:12:55.863Z,8.5
2017-05-06T05:14:14.515Z,8.5
2017-05-06T05:15:33.189Z,8.5
2017-05-06T05:16:51.855Z,8.5
2017-05-06T05:18:10.528Z,8.5
2017-05-06T05:19:29.192Z,8.5
2017-05-06T05:20:47.827Z,8.5
2017-05-06T05:22:06.468Z,8.6
2017-05-06T05:23:25.107Z,8.6
2017-05-06T05:24:43.829Z,8.6
2017-05-06T05:26:02.471Z,8.7
2017-05-06T05:27:21.113Z,8.7
2017-05-06T05:28:39.755Z,8.7
2017-05-06T05:29:58.435Z,8.8
2017-05-06T05:31:17.098Z,8.8
2017-05-06T05:32:35.732Z,8.8
2017-05-06T05:33:54.415Z,8.9
2017-05-06T05:35:13.098Z,9
2017-05-06T05:36:31.750Z,9
2017-05-06T05:37:50.423Z,9
2017-05-06T05:39:09.109Z,9
2017-05-06T05:40:27.807Z,9
2017-05-06T05:41:46.483Z,9.1
2017-05-06T05:43:05.139Z,9.2
2017-05-06T05:44:23.785Z,9.3
2017-05-06T05:45:42.457Z,9.3
2017-05-06T05:47:01.134Z,9.4
2017-05-06T05:48:19.774Z,9.5
2017-05-06T05:49:38.453Z,9.6
2017-05-06T05:50:57.177Z,9.6
2017-05-06T05:52:15.824Z,9.7
2017-05-06T05:53:34.502Z,9.7
2017-05-06T05:54:53.188Z,9.7
2017-05-06T05:56:11.910Z,9.7
2017-05-06T05:57:30.553Z,9.7
2017-05-06T05:58:49.195Z,9.7
2017-05-06T06:00:07.865Z,9.8
2017-05-06T06:01:26.576Z,9.8
2017-05-06T06:02:45.285Z,9.8
2017-05-06T06:04:03.959Z,9.7
2017-05-06T06:05:22.596Z,9.8
2017-05-06T06:06:41.243Z,9.9
2017-05-06T06:07:59.875Z,9.9
2017-05-06T06:09:18.574Z,9.9
2017-05-06T06:10:37.235Z,10
2017-05-06T06:11:55.906Z,10.1
2017-05-06T06:13:14.559Z,10.1
2017-05-06T06:14:33.238Z,10.1
2017-05-06T06:15:51.895Z,10
2017-05-06T06:17:10.581Z,10
2017-05-06T06:18:29.277Z,9.9
2017-05-06T06:19:47.932Z,9.9
2017-05-06T06:21:06.577Z,9.8
2017-05-06T06:22:25.281Z,9.9
2017-05-06T06:23:43.972Z,10
2017-05-06T06:25:02.649Z,10.1
2017-05-06T06:26:21.312Z,10.1
2017-05-06T06:27:40.035Z,10.1
2017-05-06T06:28:58.691Z,10.1
2017-05-06T06:30:17.353Z,10.1
2017-05-06T06:31:36.008Z,10.1
2017-05-06T06:32:54.687Z,10.2
2017-05-06T06:34:13.353Z,10.3
2017-05-06T06:35:32.054Z,10.5
2017-05-06T06:36:50.711Z,10.6
2017-05-06T06:38:09.396Z,10.6
2017-05-06T06:39:28.057Z,10.7
2017-05-06T06:40:46.712Z,10.7
2017-05-06T06:42:05.389Z,10.7
2017-05-06T06:43:24.056Z,10.7
2017-05-06T06:44:42.706Z,10.7
2017-05-06T06:46:01.415Z,10.6
2017-05-06T06:47:20.106Z,10.5
2017-05-06T06:48:38.794Z,10.3
2017-05-06T06:49:57.503Z,10.2
2017-05-06T06:51:16.196Z,10.2
2017-05-06T06:52:34.871Z,10.3
2017-05-06T06:53:53.583Z,10.6
2017-05-06T06:55:12.249Z,10.8
2017-05-06T06:56:30.907Z,11
2017-05-06T06:57:49.561Z,11.1
2017-05-06T06:59:08.246Z,11.2
2017-05-06T07:00:26.951Z,11.2
2017-05-06T07:01:45.653Z,11.1
2017-05-06T07:03:04.362Z,11
2017-05-06T07:04:23.045Z,10.9
2017-05-06T07:05:41.731Z,10.9
2017-05-06T07:07:00.406Z,10.9
2017-05-06T07:08:19.116Z,10.9
2017-05-06T07:09:37.783Z,10.9
2017-05-06T07:10:56.448Z,11
2017-05-06T07:12:15.123Z,11.1
2017-05-06T07:13:33.791Z,11.2
2017-05-06T07:14:52.501Z,11.3
2017-05-06T07:16:11.215Z,11.4
2017-05-06T07:17:29.952Z,11.6
2017-05-06T07:18:48.610Z,11.7
2017-05-06T07:20:07.302Z,11.6
2017-05-06T07:21:26.027Z,11.6
2017-05-06T07:22:44.700Z,11.6
2017-05-06T07:24:03.388Z,11.7
2017-05-06T07:25:22.131Z,11.8
2017-05-06T07:26:40.792Z,11.9
2017-05-06T07:27:59.448Z,11.9
2017-05-06T07:29:18.105Z,11.9
2017-05-06T07:30:36.773Z,12.1
2017-05-06T07:31:55.429Z,12.2
2017-05-06T07:33:14.128Z,12.1
2017-05-06T07:34:32.788Z,12.1
2017-05-06T07:35:51.467Z,12
2017-05-06T07:37:10.176Z,12
2017-05-06T07:38:28.832Z,12.1
2017-05-06T07:39:47.493Z,12.1
2017-05-06T07:41:06.218Z,12.1
2017-05-06T07:42:24.905Z,12.2
2017-05-06T07:43:43.559Z,12.3
2017-05-06T07:45:02.258Z,12.5
2017-05-06T07:46:20.918Z,12.7
2017-05-06T07:47:39.609Z,12.7
2017-05-06T07:48:58.296Z,12.9
2017-05-06T07:50:16.951Z,13
2017-05-06T07:51:35.696Z,13.2
2017-05-06T07:52:54.359Z,13.3
2017-05-06T07:54:13.054Z,13.4
2017-05-06T07:55:31.716Z,13.6
2017-05-06T07:56:50.385Z,13.9
2017-05-06T07:58:09.050Z,14.1
2017-05-06T07:59:27.706Z,14.2
2017-05-06T08:00:46.367Z,14.3
2017-05-06T08:02:05.052Z,14.4
2017-05-06T08:03:23.708Z,14.5
2017-05-06T08:04:42.367Z,14.6
2017-05-06T08:06:01.033Z,14.7
2017-05-06T08:07:19.721Z,14.7
2017-05-06T08:08:38.464Z,14.4
2017-05-06T08:09:57.115Z,14.4
2017-05-06T08:11:15.777Z,14.6
2017-05-06T08:12:34.451Z,14.5
2017-05-06T08:13:53.135Z,14.2
2017-05-06T08:15:11.829Z,13.7
2017-05-06T08:16:30.538Z,13.2
2017-05-06T08:17:49.233Z,12.9
2017-05-06T08:19:07.940Z,12.6
2017-05-06T08:20:26.592Z,12.5
2017-05-06T08:21:45.253Z,12.4
2017-05-06T08:23:03.930Z,12.2
2017-05-06T08:24:22.631Z,12.5
2017-05-06T08:25:41.317Z,12.9
2017-05-06T08:26:59.991Z,12.9
2017-05-06T08:28:18.677Z,12.9
2017-05-06T08:29:37.335Z,13.1
2017-05-06T08:30:56.031Z,13.6
2017-05-06T08:32:14.761Z,13.7
2017-05-06T08:33:33.447Z,13.7
2017-05-06T08:34:52.101Z,13.8
2017-05-06T08:36:10.764Z,13.6
2017-05-06T08:37:29.429Z,13.4
2017-05-06T08:38:48.163Z,13.1
2017-05-06T08:40:06.833Z,13.1
2017-05-06T08:41:25.495Z,13.1
2017-05-06T08:42:44.153Z,13.2
2017-05-06T08:44:02.844Z,13.6
2017-05-06T08:45:21.507Z,14.1
2017-05-06T08:46:40.169Z,14.6
2017-05-06T08:47:58.828Z,15
2017-05-06T08:49:17.547Z,15
2017-05-06T08:50:36.202Z,14.6
2017-05-06T08:51:54.912Z,14.3
2017-05-06T08:53:13.579Z,14
2017-05-06T08:54:32.265Z,13.8
2017-05-06T08:55:50.984Z,13.7
2017-05-06T08:57:09.666Z,13.6
2017-05-06T08:58:28.326Z,13.8
2017-05-06T08:59:47.006Z,13.9
2017-05-06T09:01:05.687Z,14.3
2017-05-06T09:02:24.422Z,14.5
2017-05-06T09:03:43.079Z,14.7
2017-05-06T09:05:01.746Z,14.8
2017-05-06T09:06:20.403Z,15.1
2017-05-06T09:07:39.055Z,15.3
2017-05-06T09:08:57.713Z,15.3
2017-05-06T09:10:16.399Z,15.1
2017-05-06T09:11:35.070Z,14.7
2017-05-06T09:12:53.727Z,14.5
2017-05-06T09:14:12.415Z,14.2
2017-05-06T09:15:31.101Z,13.9
2017-05-06T09:16:49.757Z,13.9
2017-05-06T09:18:08.410Z,14.1
2017-05-06T09:19:27.075Z,14.5
2017-05-06T09:20:45.791Z,14.5
2017-05-06T09:22:04.466Z,14.2
2017-05-06T09:23:23.146Z,14
2017-05-06T09:24:41.852Z,13.9
2017-05-06T09:26:00.597Z,14
2017-05-06T09:27:19.283Z,14.2
2017-05-06T09:28:37.987Z,14.3
2017-05-06T09:29:56.646Z,14.6
2017-05-06T09:31:15.370Z,14.9
2017-05-06T09:32:34.049Z,15.3
2017-05-06T09:33:52.759Z,15.7
2017-05-06T09:35:11.437Z,15.6
2017-05-06T09:36:30.125Z,15.4
2017-05-06T09:37:48.777Z,15.2
2017-05-06T09:39:07.432Z,15
2017-05-06T09:40:26.084Z,15.4
2017-05-06T09:41:44.787Z,15.9
2017-05-06T09:43:03.463Z,16.1
2017-05-06T09:44:22.125Z,16
2017-05-06T09:45:40.782Z,16
2017-05-06T09:46:59.488Z,16.3
2017-05-06T09:48:18.145Z,16.8
2017-05-06T09:49:36.808Z,17.1
2017-05-06T09:50:55.471Z,17.3
2017-05-06T09:52:14.210Z,17.7
2017-05-06T09:53:32.870Z,17.6
2017-05-06T09:54:51.534Z,17.5
2017-05-06T09:56:10.188Z,17.2
2017-05-06T09:57:28.880Z,16.9
2017-05-06T09:58:47.576Z,16.4
2017-05-06T10:00:06.237Z,16.3
2017-05-06T10:01:24.893Z,16.5
2017-05-06T10:02:43.608Z,16.8
2017-05-06T10:04:02.258Z,17.1
2017-05-06T10:05:20.915Z,17.2
2017-05-06T10:06:39.587Z,17.2
2017-05-06T10:07:58.254Z,17.4
2017-05-06T10:09:16.923Z,17.6
2017-05-06T10:10:35.578Z,17.8
2017-05-06T10:11:54.263Z,18.2
2017-05-06T10:13:13.005Z,18.4
2017-05-06T10:14:31.675Z,18.7
2017-05-06T10:15:50.343Z,18.9
2017-05-06T10:17:09.013Z,18.9
2017-05-06T10:18:27.694Z,18.9
2017-05-06T10:19:46.353Z,18.8
2017-05-06T10:21:05.059Z,18.7
2017-05-06T10:22:23.762Z,18.3
2017-05-06T10:23:42.438Z,18
2017-05-06T10:25:01.097Z,18
2017-05-06T10:26:19.762Z,18
2017-05-06T10:27:38.420Z,18.4
2017-05-06T10:28:57.106Z,18.7
2017-05-06T10:30:15.764Z,19.3
2017-05-06T10:31:34.425Z,19.3
2017-05-06T10:32:53.079Z,19.1
2017-05-06T10:34:11.796Z,18.8
2017-05-06T10:35:30.494Z,18.7
2017-05-06T10:36:49.182Z,18.9
2017-05-06T10:38:07.839Z,18.9
2017-05-06T10:39:26.532Z,18.8
2017-05-06T10:40:45.186Z,19.3
2017-05-06T10:42:03.844Z,19.7
2017-05-06T10:43:22.579Z,20
2017-05-06T10:44:41.249Z,20.2
2017-05-06T10:45:59.987Z,20
2017-05-06T10:47:18.645Z,19.8
2017-05-06T10:48:37.308Z,19.9
2017-05-06T10:49:55.977Z,20.4
2017-05-06T10:51:14.644Z,20.9
2017-05-06T10:52:33.295Z,20.5
2017-05-06T10:53:51.971Z,20.3
2017-05-06T10:55:10.661Z,19.9
2017-05-06T10:56:29.321Z,19.6
2017-05-06T10:57:48.028Z,19.3
2017-05-06T10:59:06.686Z,19.2
2017-05-06T11:00:25.394Z,19.2
2017-05-06T11:01:44.165Z,19.5
2017-05-06T11:03:02.821Z,19.6
2017-05-06T11:04:21.478Z,19.5
2017-05-06T11:05:40.159Z,19.2
2017-05-06T11:06:58.838Z,19.1
2017-05-06T11:08:17.503Z,19.5
2017-05-06T11:09:36.202Z,19.5
2017-05-06T11:10:54.883Z,19.8
2017-05-06T11:12:13.537Z,20.4
2017-05-06T11:13:32.252Z,20.5
2017-05-06T11:14:50.909Z,20.8
2017-05-06T11:16:09.598Z,21.4
2017-05-06T11:17:28.264Z,21.6
2017-05-06T11:18:46.921Z,21.5
2017-05-06T11:20:05.576Z,21.1
2017-05-06T11:21:24.259Z,21
2017-05-06T11:22:42.915Z,21.6
2017-05-06T11:24:01.569Z,22
2017-05-06T11:25:20.269Z,22.2
2017-05-06T11:26:38.959Z,22.7
2017-05-06T11:27:57.645Z,23.1
2017-05-06T11:29:16.311Z,23.3
2017-05-06T11:30:34.966Z,23.4
2017-05-06T11:31:53.653Z,23.2
2017-05-06T11:33:12.393Z,23.1
2017-05-06T11:34:31.054Z,23.1
2017-05-06T11:35:49.714Z,22.7
2017-05-06T11:37:08.425Z,22.7
2017-05-06T11:38:27.085Z,22.5
2017-05-06T11:39:45.744Z,22
2017-05-06T11:41:04.403Z,21.7
2017-05-06T11:42:23.116Z,21.8
2017-05-06T11:43:41.780Z,21.9
2017-05-06T11:45:00.441Z,22.3
2017-05-06T11:46:19.101Z,22.7
2017-05-06T11:47:37.785Z,23.2
2017-05-06T11:48:56.473Z,25.2
2017-05-06T11:50:15.189Z,25.3
2017-05-06T11:51:33.924Z,24.8
2017-05-06T11:52:52.583Z,24.6
2017-05-06T11:54:11.271Z,24.2
2017-05-06T11:55:29.934Z,24.1
2017-05-06T11:56:48.604Z,26.2
2017-05-06T11:58:07.286Z,31.5
2017-05-06T11:59:25.945Z,31.9
2017-05-06T12:00:44.646Z,34.3
2017-05-06T12:02:03.349Z,34.5
2017-05-06T12:03:22.034Z,34.7
2017-05-06T12:04:40.704Z,34.7
2017-05-06T12:05:59.366Z,34.7
2017-05-06T12:07:18.063Z,34.9
2017-05-06T12:08:36.752Z,35.2
2017-05-06T12:09:55.430Z,35.4
2017-05-06T12:11:14.093Z,35.4
2017-05-06T12:12:32.756Z,35.2
2017-05-06T12:13:51.433Z,34.5
2017-05-06T12:15:10.090Z,33
2017-05-06T12:16:28.781Z,30.5
2017-05-06T12:17:47.490Z,28.9
2017-05-06T12:19:06.188Z,29.5
2017-05-06T12:20:24.934Z,31.8
2017-05-06T12:21:43.636Z,31.6
2017-05-06T12:23:02.310Z,30.4
2017-05-06T12:24:20.979Z,29.3
2017-05-06T12:25:39.632Z,28
2017-05-06T12:26:58.298Z,27.1
2017-05-06T12:28:17.013Z,26.5
2017-05-06T12:29:35.694Z,26.4
2017-05-06T12:30:54.353Z,26.1
2017-05-06T12:32:13.010Z,26
2017-05-06T12:33:31.668Z,28.1
2017-05-06T12:34:50.334Z,28.2
2017-05-06T12:36:09.013Z,27.7
2017-05-06T12:37:27.705Z,27.4
2017-05-06T12:38:46.366Z,28.9
2017-05-06T12:40:05.039Z,32.6
2017-05-06T12:41:23.766Z,31.1
2017-05-06T12:42:42.423Z,31.1
2017-05-06T12:44:01.075Z,33.5
2017-05-06T12:45:19.789Z,34.6
2017-05-06T12:46:38.457Z,35.1
2017-05-06T12:47:57.170Z,35.4
2017-05-06T12:49:15.830Z,35.6
2017-05-06T12:50:34.516Z,35.5
2017-05-06T12:51:53.223Z,35.1
2017-05-06T12:53:11.935Z,34.6
2017-05-06T12:54:30.613Z,33.7
2017-05-06T12:55:49.286Z,31
2017-05-06T12:57:07.943Z,28.9
2017-05-06T12:58:26.621Z,27.7
2017-05-06T12:59:45.292Z,26.5
2017-05-06T13:01:03.979Z,25.9
2017-05-06T13:02:22.639Z,25.1
2017-05-06T13:03:41.295Z,24.6
2017-05-06T13:04:59.992Z,24.7
2017-05-06T13:06:18.721Z,26.2
2017-05-06T13:07:37.433Z,26.8
2017-05-06T13:08:56.139Z,28.5
2017-05-06T13:10:14.838Z,29.1
2017-05-06T13:11:33.534Z,30.7
2017-05-06T13:12:52.188Z,34.4
2017-05-06T13:14:10.845Z,34.5
2017-05-06T13:15:29.551Z,35
2017-05-06T13:16:48.238Z,35.4
2017-05-06T13:18:06.910Z,35.6
2017-05-06T13:19:25.564Z,35.3
2017-05-06T13:20:44.220Z,34.8
2017-05-06T13:22:02.934Z,34.5
2017-05-06T13:23:21.626Z,33.1
2017-05-06T13:24:40.289Z,31
2017-05-06T13:25:58.945Z,29.2
2017-05-06T13:27:17.638Z,29.5
2017-05-06T13:28:36.294Z,34.4
2017-05-06T13:29:54.953Z,34.9
2017-05-06T13:31:13.632Z,34.6
2017-05-06T13:32:32.316Z,34.1
2017-05-06T13:33:51.003Z,31.4
2017-05-06T13:35:09.659Z,29.1
2017-05-06T13:36:28.398Z,28.6
2017-05-06T13:37:47.093Z,32.4
2017-05-06T13:39:05.820Z,34
2017-05-06T13:40:24.502Z,34.3
2017-05-06T13:41:43.175Z,34.6
2017-05-06T13:43:01.885Z,34.9
2017-05-06T13:44:20.537Z,35.3
2017-05-06T13:45:39.194Z,35.6
2017-05-06T13:46:57.851Z,35.4
2017-05-06T13:48:16.510Z,34.8
2017-05-06T13:49:35.193Z,34.4
2017-05-06T13:50:53.909Z,34.4
2017-05-06T13:52:12.570Z,35
2017-05-06T13:53:31.235Z,35.5
2017-05-06T13:54:49.973Z,35.8
2017-05-06T13:56:08.682Z,36
2017-05-06T13:57:27.329Z,36.1
2017-05-06T13:58:46.020Z,36.3
2017-05-06T14:00:04.673Z,36.4
2017-05-06T14:01:23.349Z,36.4
2017-05-06T14:02:42.032Z,36.3
2017-05-06T14:04:00.760Z,35.5
2017-05-06T14:05:19.418Z,34.9
2017-05-06T14:06:38.122Z,34.5
2017-05-06T14:07:56.827Z,32.8
2017-05-06T14:09:15.504Z,30.8
2017-05-06T14:10:34.176Z,29.5
2017-05-06T14:11:52.867Z,28.6
2017-05-06T14:13:11.588Z,28.2
2017-05-06T14:14:30.276Z,29.9
2017-05-06T14:15:48.981Z,32.8
2017-05-06T14:17:07.629Z,34.8
2017-05-06T14:18:26.284Z,35.4
2017-05-06T14:19:44.992Z,35.3
2017-05-06T14:21:03.654Z,34.7
2017-05-06T14:22:22.323Z,33.9
2017-05-06T14:23:40.978Z,31
2017-05-06T14:24:59.638Z,29.2
2017-05-06T14:26:18.374Z,27.8
2017-05-06T14:27:37.022Z,26.7
2017-05-06T14:28:55.724Z,26.1
2017-05-06T14:30:14.453Z,27
2017-05-06T14:31:33.134Z,33.4
2017-05-06T14:32:51.788Z,34.8
2017-05-06T14:34:10.472Z,35.2
2017-05-06T14:35:29.161Z,35.5
2017-05-06T14:36:47.814Z,35.3
2017-05-06T14:38:06.544Z,35.5
2017-05-06T14:39:25.197Z,35.7
2017-05-06T14:40:43.939Z,35.7
2017-05-06T14:42:02.644Z,35.7
2017-05-06T14:43:21.317Z,35
2017-05-06T14:44:39.977Z,34.4
2017-05-06T14:45:58.636Z,32
2017-05-06T14:47:17.341Z,29.6
2017-05-06T14:48:36.002Z,27.8
2017-05-06T14:49:54.701Z,26.1
2017-05-06T14:51:13.375Z,24.9
2017-05-06T14:52:32.041Z,24.4
2017-05-06T14:53:50.729Z,24.1
2017-05-06T14:55:09.422Z,23.9
2017-05-06T14:56:28.134Z,23.7
2017-05-06T14:57:46.853Z,23.7
2017-05-06T14:59:05.550Z,23.8
2017-05-06T15:00:24.210Z,24
2017-05-06T15:01:42.897Z,24.7
2017-05-06T15:03:01.553Z,31
2017-05-06T15:04:20.207Z,33
2017-05-06T15:05:38.866Z,31.2
2017-05-06T15:06:57.529Z,29
2017-05-06T15:08:16.182Z,27.6
2017-05-06T15:09:34.835Z,26.8
2017-05-06T15:10:53.541Z,26.1
2017-05-06T15:12:12.237Z,25.7
2017-05-06T15:13:30.940Z,25.3
2017-05-06T15:14:49.586Z,25.2
2017-05-06T15:16:08.241Z,24.9
2017-05-06T15:17:26.945Z,24.6
2017-05-06T15:18:45.599Z,24.2
2017-05-06T15:20:04.302Z,24.1
2017-05-06T15:21:22.976Z,23.8
2017-05-06T15:22:41.655Z,23.6
2017-05-06T15:24:00.315Z,23.4
2017-05-06T15:25:18.968Z,23.3
2017-05-06T15:26:37.612Z,23.1
2017-05-06T15:27:56.369Z,22.8
2017-05-06T15:29:15.070Z,22.5
2017-05-06T15:30:33.766Z,22.1
2017-05-06T15:31:52.419Z,21.8
2017-05-06T15:33:11.080Z,21.6
2017-05-06T15:34:29.745Z,21.4
2017-05-06T15:35:48.433Z,21.3
2017-05-06T15:37:07.087Z,21.1
2017-05-06T15:38:25.771Z,21
2017-05-06T15:39:44.426Z,21.1
2017-05-06T15:41:03.079Z,21.4
2017-05-06T15:42:21.741Z,21.5
2017-05-06T15:43:40.403Z,21.7
2017-05-06T15:44:59.129Z,22.2
2017-05-06T15:46:17.819Z,22.9
2017-05-06T15:47:36.474Z,23.2
2017-05-06T15:48:55.134Z,23.2
2017-05-06T15:50:13.789Z,23.2
2017-05-06T15:51:32.444Z,23.2
2017-05-06T15:52:51.151Z,23
2017-05-06T15:54:09.826Z,22.6
2017-05-06T15:55:28.485Z,22
2017-05-06T15:56:47.141Z,21.5
2017-05-06T15:58:05.831Z,21.1
2017-05-06T15:59:24.505Z,20.8
2017-05-06T16:00:43.223Z,20.5
2017-05-06T16:02:01.880Z,20.3
2017-05-06T16:03:20.593Z,20.1
2017-05-06T16:04:39.321Z,19.9
2017-05-06T16:05:57.974Z,19.7
2017-05-06T16:07:16.621Z,19.6
2017-05-06T16:08:35.280Z,19.5
2017-05-06T16:09:53.940Z,19.3
2017-05-06T16:11:12.661Z,19.2
2017-05-06T16:12:31.365Z,19
2017-05-06T16:13:50.057Z,18.9
2017-05-06T16:15:08.742Z,18.8
2017-05-06T16:16:27.415Z,18.8
2017-05-06T16:17:46.141Z,18.7
2017-05-06T16:19:04.824Z,18.7
2017-05-06T16:20:23.520Z,18.7
2017-05-06T16:21:42.174Z,18.6
2017-05-06T16:23:00.838Z,18.6
2017-05-06T16:24:19.547Z,18.7
2017-05-06T16:25:38.222Z,18.8
2017-05-06T16:26:56.879Z,19.4
2017-05-06T16:28:15.538Z,21.9
2017-05-06T16:29:34.204Z,24.5
2017-05-06T16:30:52.941Z,25.5
2017-05-06T16:32:11.597Z,25.6
2017-05-06T16:33:30.248Z,25.5
2017-05-06T16:34:48.901Z,24.7
2017-05-06T16:36:07.590Z,24
2017-05-06T16:37:26.294Z,24.5
2017-05-06T16:38:44.991Z,25.4
2017-05-06T16:40:03.645Z,24.6
2017-05-06T16:41:22.302Z,23.8
2017-05-06T16:42:41.039Z,24
2017-05-06T16:43:59.749Z,23.6
2017-05-06T16:45:18.454Z,22.3
2017-05-06T16:46:37.153Z,21.5
2017-05-06T16:47:55.818Z,20.8
2017-05-06T16:49:14.470Z,20.5
2017-05-06T16:50:33.166Z,20.2
2017-05-06T16:51:51.835Z,20.3
2017-05-06T16:53:10.486Z,20.2
2017-05-06T16:54:29.140Z,20.1
2017-05-06T16:55:47.797Z,20.2
2017-05-06T16:57:06.499Z,20.2
2017-05-06T16:58:25.157Z,20.1
2017-05-06T16:59:43.814Z,19.8
2017-05-06T17:01:02.556Z,19.7
2017-05-06T17:02:21.291Z,19.5
2017-05-06T17:03:40.008Z,19.2
2017-05-06T17:04:58.715Z,18.8
2017-05-06T17:06:17.441Z,18.5
2017-05-06T17:07:36.099Z,18.3
2017-05-06T17:08:54.762Z,18.2
2017-05-06T17:10:13.471Z,18
2017-05-06T17:11:32.126Z,17.8
2017-05-06T17:12:50.848Z,17.7
2017-05-06T17:14:09.521Z,17.5
2017-05-06T17:15:28.227Z,17.3
2017-05-06T17:16:46.924Z,17.1
2017-05-06T17:18:05.593Z,16.8
2017-05-06T17:19:24.303Z,16.9
2017-05-06T17:20:42.992Z,17
2017-05-06T17:22:01.680Z,16.8
2017-05-06T17:23:20.369Z,16.8
2017-05-06T17:24:39.024Z,16.4
2017-05-06T17:25:57.681Z,16.3
2017-05-06T17:27:16.383Z,16.1
2017-05-06T17:28:35.043Z,16.1
2017-05-06T17:29:53.746Z,16.1
2017-05-06T17:31:12.466Z,16.1
2017-05-06T17:32:31.118Z,16.2
2017-05-06T17:33:49.830Z,16.5
2017-05-06T17:35:08.482Z,16.8
2017-05-06T17:36:27.181Z,17.1
2017-05-06T17:37:45.848Z,17.2
2017-05-06T17:39:04.566Z,17.2
2017-05-06T17:40:23.278Z,17.1
2017-05-06T17:41:41.931Z,17
2017-05-06T17:43:00.585Z,16.8
2017-05-06T17:44:19.277Z,16.6
2017-05-06T17:45:37.960Z,16.3
2017-05-06T17:46:56.605Z,16